createdAt,value
2018-06-23T00:00:55.397Z,2.58
2018-06-23T00:03:23.856Z,2.50
2018-06-23T00:05:52.364Z,3.05
2018-06-23T00:08:20.902Z,3.10
2018-06-23T00:10:49.434Z,2.05
2018-06-23T00:13:17.885Z,2.67
2018-06-23T00:15:46.429Z,2.62
2018-06-23T00:18:15.038Z,2.60
2018-06-23T00:20:43.491Z,2.50
2018-06-23T00:23:11.984Z,3.05
2018-06-23T00:25:45.977Z,2.62
2018-06-23T00:28:14.662Z,2.25
2018-06-23T00:30:43.115Z,3.00
2018-06-23T00:33:11.728Z,2.40
2018-06-23T00:35:40.270Z,2.90
2018-06-23T00:38:08.834Z,2.50
2018-06-23T00:40:37.487Z,2.70
2018-06-23T00:43:06.273Z,3.40
2018-06-23T00:45:35.372Z,2.87
2018-06-23T00:48:03.839Z,2.70
2018-06-23T00:50:32.481Z,2.55
2018-06-23T00:53:00.956Z,2.80
2018-06-23T00:55:29.638Z,3.05
2018-06-23T00:57:58.100Z,2.45
2018-06-23T01:00:26.561Z,2.85
2018-06-23T01:02:54.993Z,2.80
2018-06-23T01:05:23.488Z,3.10
2018-06-23T01:07:51.935Z,3.00
2018-06-23T01:10:20.511Z,3.25
2018-06-23T01:12:48.974Z,3.30
2018-06-23T01:15:17.397Z,3.20
2018-06-23T01:17:46.465Z,3.15
2018-06-23T01:20:15.072Z,3.10
2018-06-23T01:22:43.554Z,2.92
2018-06-23T01:25:12.018Z,2.83
2018-06-23T01:27:40.473Z,4.53
2018-06-23T01:30:09.056Z,3.10
2018-06-23T01:32:37.548Z,3.08
2018-06-23T01:35:06.050Z,2.90
2018-06-23T01:37:34.554Z,3.50
2018-06-23T01:40:03.004Z,3.10
2018-06-23T01:42:31.568Z,3.10
2018-06-23T01:45:00.097Z,2.95
2018-06-23T01:47:28.577Z,3.20
2018-06-23T01:49:57.038Z,3.55
2018-06-23T01:52:25.509Z,2.90
2018-06-23T01:54:53.973Z,2.10
2018-06-23T01:57:23.155Z,2.87
2018-06-23T01:59:51.616Z,2.83
2018-06-23T02:02:20.093Z,2.70
2018-06-23T02:04:48.602Z,2.77
2018-06-23T02:07:17.116Z,3.17
2018-06-23T02:09:45.733Z,3.17
2018-06-23T02:12:14.345Z,2.60
2018-06-23T02:14:48.140Z,3.12
2018-06-23T02:17:21.841Z,2.75
2018-06-23T02:19:55.656Z,3.05
2018-06-23T02:22:29.501Z,2.90
2018-06-23T02:25:03.201Z,3.22
2018-06-23T02:27:36.877Z,3.40
2018-06-23T02:30:10.708Z,3.30
2018-06-23T02:32:44.849Z,2.47
2018-06-23T02:35:13.488Z,3.05
2018-06-23T02:37:41.966Z,3.42
2018-06-23T02:40:10.532Z,2.42
2018-06-23T02:42:39.048Z,2.87
2018-06-23T02:45:08.047Z,2.80
2018-06-23T02:47:37.149Z,3.10
2018-06-23T02:50:05.740Z,3.02
2018-06-23T02:52:34.261Z,2.50
2018-06-23T02:55:02.770Z,3.33
2018-06-23T02:57:31.255Z,3.17
2018-06-23T02:59:59.876Z,3.00
2018-06-23T03:02:28.309Z,2.40
2018-06-23T03:04:57.186Z,2.92
2018-06-23T03:07:25.740Z,2.72
2018-06-23T03:09:54.257Z,2.60
2018-06-23T03:12:22.708Z,2.80
2018-06-23T03:14:50.883Z,2.92
2018-06-23T03:17:19.958Z,2.40
2018-06-23T03:19:50.748Z,2.77
2018-06-23T03:22:19.469Z,2.55
2018-06-23T03:24:48.101Z,2.90
2018-06-23T03:27:16.677Z,2.77
2018-06-23T03:29:45.159Z,2.55
2018-06-23T03:32:13.644Z,3.30
2018-06-23T03:34:42.089Z,2.72
2018-06-23T03:37:10.587Z,2.60
2018-06-23T03:39:38.750Z,3.52
2018-06-23T03:42:07.358Z,3.20
2018-06-23T03:44:36.929Z,3.00
2018-06-23T03:47:05.539Z,3.12
2018-06-23T03:49:34.093Z,2.90
2018-06-23T03:52:02.627Z,3.20
2018-06-23T03:54:31.286Z,3.00
2018-06-23T03:56:59.819Z,3.20
2018-06-23T03:59:28.318Z,2.90
2018-06-23T04:01:56.900Z,2.50
2018-06-23T04:04:25.373Z,3.40
2018-06-23T04:06:53.828Z,2.80
2018-06-23T04:09:22.293Z,3.50
2018-06-23T04:11:50.729Z,3.22
2018-06-23T04:14:19.375Z,2.90
2018-06-23T04:16:48.057Z,2.85
2018-06-23T04:19:16.580Z,3.30
2018-06-23T04:21:45.030Z,3.05
2018-06-23T04:24:13.506Z,3.12
2018-06-23T04:26:41.938Z,2.80
2018-06-23T04:29:10.609Z,3.08
2018-06-23T04:31:39.100Z,2.85
2018-06-23T04:34:08.738Z,2.52
2018-06-23T04:36:37.177Z,3.15
2018-06-23T04:39:07.262Z,2.70
2018-06-23T04:41:37.180Z,2.95
2018-06-23T04:44:05.668Z,3.50
2018-06-23T04:46:34.358Z,3.33
2018-06-23T04:49:02.818Z,3.65
2018-06-23T04:51:31.365Z,3.62
2018-06-23T04:53:59.934Z,3.50
2018-06-23T04:56:28.392Z,3.20
2018-06-23T04:58:56.828Z,3.00
2018-06-23T05:01:25.330Z,3.20
2018-06-23T05:03:53.777Z,3.30
2018-06-23T05:06:22.268Z,3.50
2018-06-23T05:08:50.758Z,3.52
2018-06-23T05:11:19.206Z,3.50
2018-06-23T05:13:47.671Z,3.60
2018-06-23T05:16:16.266Z,4.03
2018-06-23T05:18:44.809Z,3.50
2018-06-23T05:21:13.326Z,3.90
2018-06-23T05:23:42.601Z,3.45
2018-06-23T05:26:11.593Z,4.55
2018-06-23T05:28:40.285Z,4.30
2018-06-23T05:31:09.446Z,4.05
2018-06-23T05:33:37.888Z,3.67
2018-06-23T05:36:06.411Z,4.30
2018-06-23T05:38:34.983Z,3.70
2018-06-23T05:41:03.532Z,4.37
2018-06-23T05:43:32.064Z,3.83
2018-06-23T05:46:00.592Z,4.30
2018-06-23T05:48:29.217Z,3.70
2018-06-23T05:50:57.761Z,4.15
2018-06-23T05:53:26.242Z,3.60
2018-06-23T05:55:54.965Z,5.08
2018-06-23T05:58:23.441Z,4.42
2018-06-23T06:00:51.941Z,4.42
2018-06-23T06:03:20.453Z,4.35
2018-06-23T06:05:48.925Z,4.42
2018-06-23T06:08:17.443Z,3.72
2018-06-23T06:10:45.898Z,4.95
2018-06-23T06:13:14.349Z,4.20
2018-06-23T06:15:42.848Z,5.70
2018-06-23T06:18:11.384Z,5.50
2018-06-23T06:20:39.953Z,5.55
2018-06-23T06:23:09.236Z,5.53
2018-06-23T06:25:37.920Z,5.40
2018-06-23T06:28:06.136Z,6.60
2018-06-23T06:30:34.635Z,5.33
2018-06-23T06:33:03.234Z,6.30
2018-06-23T06:35:31.867Z,5.73
2018-06-23T06:38:00.236Z,5.00
2018-06-23T06:40:28.776Z,6.30
2018-06-23T06:42:57.722Z,5.27
2018-06-23T06:45:26.197Z,5.13
2018-06-23T06:47:54.677Z,4.63
2018-06-23T06:50:23.736Z,4.10
2018-06-23T06:52:52.409Z,5.20
2018-06-23T06:55:20.897Z,5.03
2018-06-23T06:57:49.393Z,4.87
2018-06-23T07:00:17.949Z,4.43
2018-06-23T07:02:46.556Z,4.30
2018-06-23T07:05:15.649Z,5.27
2018-06-23T07:07:44.092Z,3.90
2018-06-23T07:10:12.545Z,3.87
2018-06-23T07:12:41.012Z,3.50
2018-06-23T07:15:13.242Z,4.33
2018-06-23T07:17:41.835Z,4.40
2018-06-23T07:20:10.936Z,4.47
2018-06-23T07:22:40.253Z,4.30
2018-06-23T07:25:08.808Z,4.63
2018-06-23T07:27:37.285Z,4.90
2018-06-23T07:30:06.515Z,4.50
2018-06-23T07:32:34.945Z,5.30
2018-06-23T07:35:03.522Z,4.77
2018-06-23T07:37:32.017Z,3.80
2018-06-23T07:40:00.533Z,4.50
2018-06-23T07:42:29.089Z,5.40
2018-06-23T07:44:57.626Z,4.23
2018-06-23T07:47:26.089Z,4.23
2018-06-23T07:49:55.317Z,3.70
2018-06-23T07:52:24.327Z,3.37
2018-06-23T07:54:52.948Z,3.03
2018-06-23T07:57:22.485Z,3.73
2018-06-23T07:59:51.068Z,3.60
2018-06-23T08:02:19.565Z,3.40
2018-06-23T08:04:48.309Z,4.13
2018-06-23T08:07:16.764Z,4.17
2018-06-23T08:09:45.260Z,3.60
2018-06-23T08:12:14.434Z,4.20
2018-06-23T08:14:42.987Z,4.17
2018-06-23T08:17:12.633Z,4.30
2018-06-23T08:19:41.105Z,4.63
2018-06-23T08:22:09.567Z,3.17
2018-06-23T08:24:38.023Z,3.83
2018-06-23T08:27:06.477Z,4.00
2018-06-23T08:29:34.976Z,4.10
2018-06-23T08:32:03.422Z,4.33
2018-06-23T08:34:31.902Z,4.53
2018-06-23T08:37:00.402Z,4.90
2018-06-23T08:39:28.914Z,4.23
2018-06-23T08:41:57.488Z,4.27
2018-06-23T08:44:25.985Z,3.50
2018-06-23T08:46:54.530Z,3.27
2018-06-23T08:49:22.966Z,3.13
2018-06-23T08:53:15.636Z,3.60
2018-06-23T08:55:44.137Z,3.90
2018-06-23T08:58:12.707Z,3.00
2018-06-23T09:00:41.237Z,3.00
2018-06-23T09:03:09.760Z,3.40
2018-06-23T09:05:38.327Z,3.10
2018-06-23T09:08:06.878Z,3.70
2018-06-23T09:10:37.106Z,3.30
2018-06-23T09:13:05.566Z,2.83
2018-06-23T09:15:34.090Z,2.90
2018-06-23T09:18:02.920Z,2.90
2018-06-23T09:20:31.385Z,3.17
2018-06-23T09:22:59.910Z,3.40
2018-06-23T09:25:28.350Z,3.10
2018-06-23T09:27:57.341Z,3.00
2018-06-23T09:30:25.791Z,2.60
2018-06-23T09:32:54.242Z,2.60
2018-06-23T09:35:22.754Z,3.83
2018-06-23T09:37:51.216Z,4.03
2018-06-23T09:40:19.785Z,2.87
2018-06-23T09:42:48.231Z,3.40
2018-06-23T09:45:16.752Z,2.60
2018-06-23T09:47:45.266Z,3.67
2018-06-23T09:50:13.821Z,3.70
2018-06-23T09:52:42.469Z,3.67
2018-06-23T09:55:10.918Z,3.37
2018-06-23T09:57:39.388Z,3.63
2018-06-23T10:00:08.010Z,3.70
2018-06-23T10:02:36.696Z,2.63
2018-06-23T10:05:05.286Z,2.50
2018-06-23T10:07:33.934Z,2.67
2018-06-23T10:10:02.741Z,3.00
2018-06-23T10:12:31.195Z,3.00
2018-06-23T10:14:59.637Z,2.77
2018-06-23T10:17:28.106Z,3.33
2018-06-23T10:19:56.528Z,3.60
2018-06-23T10:22:24.994Z,3.30
2018-06-23T10:24:53.490Z,2.97
2018-06-23T10:27:22.000Z,3.43
2018-06-23T10:29:50.705Z,2.70
2018-06-23T10:32:19.158Z,3.40
2018-06-23T10:34:47.633Z,3.03
2018-06-23T10:37:16.128Z,2.53
2018-06-23T10:39:44.700Z,3.27
2018-06-23T10:42:13.209Z,3.67
2018-06-23T10:44:41.814Z,3.33
2018-06-23T10:47:10.465Z,3.30
2018-06-23T10:49:39.434Z,3.13
2018-06-23T10:52:08.025Z,2.77
2018-06-23T10:54:36.504Z,3.10
2018-06-23T10:57:04.960Z,3.00
2018-06-23T10:59:33.430Z,3.50
2018-06-23T11:02:01.926Z,3.37
2018-06-23T11:04:30.421Z,3.07
2018-06-23T11:06:59.056Z,3.07
2018-06-23T11:09:27.704Z,3.30
2018-06-23T11:11:56.296Z,3.90
2018-06-23T11:14:25.762Z,2.30
2018-06-23T11:16:54.259Z,2.83
2018-06-23T11:19:22.912Z,2.93
2018-06-23T11:21:51.401Z,3.17
2018-06-23T11:24:20.681Z,2.80
2018-06-23T11:26:49.726Z,3.00
2018-06-23T11:29:18.845Z,2.77
2018-06-23T11:31:47.316Z,3.67
2018-06-23T11:34:15.882Z,3.20
2018-06-23T11:36:44.320Z,2.90
2018-06-23T11:39:12.806Z,3.27
2018-06-23T11:41:41.220Z,3.43
2018-06-23T11:44:09.757Z,3.63
2018-06-23T11:46:38.265Z,3.30
2018-06-23T11:49:07.448Z,2.80
2018-06-23T11:51:35.875Z,3.13
2018-06-23T11:54:05.486Z,3.30
2018-06-23T11:56:34.018Z,2.63
2018-06-23T11:59:06.965Z,2.60
2018-06-23T12:01:37.971Z,3.53
2018-06-23T12:04:06.659Z,3.23
2018-06-23T12:06:50.699Z,2.77
2018-06-23T12:09:38.019Z,2.77
2018-06-23T12:12:06.897Z,3.13
2018-06-23T12:14:36.065Z,3.10
2018-06-23T12:17:04.556Z,3.10
2018-06-23T12:19:33.074Z,3.00
2018-06-23T12:22:02.348Z,3.10
2018-06-23T12:24:30.805Z,2.53
2018-06-23T12:26:59.335Z,3.00
2018-06-23T12:29:28.125Z,3.77
2018-06-23T12:31:56.437Z,3.17
2018-06-23T12:34:24.883Z,3.10
2018-06-23T12:36:53.475Z,3.27
2018-06-23T12:39:22.022Z,3.13
2018-06-23T12:41:51.664Z,3.60
2018-06-23T12:44:20.823Z,3.60
2018-06-23T12:46:49.347Z,3.40
2018-06-23T12:49:17.826Z,5.03
2018-06-23T12:51:46.406Z,4.03
2018-06-23T12:54:15.170Z,2.90
2018-06-23T12:56:43.902Z,2.93
2018-06-23T12:59:12.445Z,3.57
2018-06-23T13:01:40.956Z,4.20
2018-06-23T13:04:09.414Z,3.27
2018-06-23T13:06:37.995Z,3.73
2018-06-23T13:09:09.182Z,3.47
2018-06-23T13:11:37.718Z,4.10
2018-06-23T13:14:06.213Z,2.97
2018-06-23T13:16:34.813Z,3.30
2018-06-23T13:19:02.933Z,3.10
2018-06-23T13:21:31.455Z,3.70
2018-06-23T13:24:00.609Z,3.23
2018-06-23T13:26:29.177Z,3.53
2018-06-23T13:28:57.666Z,3.70
2018-06-23T13:31:26.186Z,3.30
2018-06-23T13:33:54.687Z,3.27
2018-06-23T13:36:23.226Z,4.20
2018-06-23T13:38:51.854Z,3.40
2018-06-23T13:41:20.314Z,3.30
2018-06-23T13:43:48.940Z,3.63
2018-06-23T13:46:17.125Z,3.63
2018-06-23T13:48:45.653Z,2.70
2018-06-23T13:51:14.315Z,4.30
2018-06-23T13:53:42.946Z,3.10
2018-06-23T13:56:11.471Z,3.50
2018-06-23T13:58:40.018Z,2.90
2018-06-23T14:01:08.679Z,3.40
2018-06-23T14:03:37.214Z,3.07
2018-06-23T14:06:05.734Z,2.70
2018-06-23T14:08:34.234Z,3.47
2018-06-23T14:11:02.822Z,3.30
2018-06-23T14:13:31.282Z,3.00
2018-06-23T14:15:59.997Z,2.90
2018-06-23T14:18:28.610Z,3.13
2018-06-23T14:20:57.196Z,2.80
2018-06-23T14:23:25.704Z,3.53
2018-06-23T14:25:54.174Z,2.70
2018-06-23T14:28:22.853Z,3.97
2018-06-23T14:30:51.303Z,3.17
2018-06-23T14:33:20.586Z,3.77
2018-06-23T14:35:49.112Z,3.10
2018-06-23T14:38:18.003Z,2.97
2018-06-23T14:40:47.409Z,3.30
2018-06-23T14:43:16.714Z,3.03
2018-06-23T14:45:45.267Z,3.30
2018-06-23T14:48:13.796Z,3.43
2018-06-23T14:50:42.256Z,2.73
2018-06-23T14:53:10.794Z,2.70
2018-06-23T14:55:39.456Z,3.30
2018-06-23T14:58:08.547Z,3.20
2018-06-23T15:00:37.011Z,3.53
2018-06-23T15:03:05.570Z,3.23
2018-06-23T15:05:34.861Z,3.40
2018-06-23T15:08:14.725Z,3.50
2018-06-23T15:10:54.504Z,3.50
2018-06-23T15:13:22.964Z,3.10
2018-06-23T15:15:51.596Z,3.70
2018-06-23T15:18:20.034Z,3.40
2018-06-23T15:20:48.598Z,3.50
2018-06-23T15:23:17.442Z,4.37
2018-06-23T15:25:45.916Z,3.10
2018-06-23T15:28:14.409Z,3.20
2018-06-23T15:30:42.918Z,2.73
2018-06-23T15:33:11.591Z,14.73
2018-06-23T15:35:40.142Z,3.77
2018-06-23T15:38:08.726Z,3.63
2018-06-23T15:40:37.180Z,3.67
2018-06-23T15:43:05.766Z,3.73
2018-06-23T15:45:33.933Z,4.17
2018-06-23T15:48:02.510Z,4.10
2018-06-23T15:50:31.006Z,4.50
2018-06-23T15:52:59.586Z,7.00
2018-06-23T15:55:28.065Z,4.50
2018-06-23T15:57:56.529Z,4.27
2018-06-23T16:00:25.084Z,4.87
2018-06-23T16:02:53.677Z,3.43
2018-06-23T16:05:22.186Z,3.80
2018-06-23T16:07:50.757Z,4.50
2018-06-23T16:10:23.688Z,3.60
2018-06-23T16:12:52.545Z,4.37
2018-06-23T16:15:21.046Z,4.00
2018-06-23T16:17:49.550Z,4.00
2018-06-23T16:20:18.786Z,4.63
2018-06-23T16:22:47.898Z,3.83
2018-06-23T16:25:17.298Z,3.70
2018-06-23T16:27:45.921Z,3.80
2018-06-23T16:30:14.593Z,3.90
2018-06-23T16:32:43.058Z,3.33
2018-06-23T16:35:11.955Z,3.67
2018-06-23T16:37:40.795Z,3.60
2018-06-23T16:40:09.288Z,3.43
2018-06-23T16:42:37.796Z,3.73
2018-06-23T16:45:06.588Z,3.73
2018-06-23T16:47:35.106Z,4.60
2018-06-23T16:50:04.050Z,4.07
2018-06-23T16:52:32.620Z,4.40
2018-06-23T16:55:01.152Z,3.53
2018-06-23T16:57:29.968Z,2.90
2018-06-23T16:59:58.567Z,3.30
2018-06-23T17:02:27.211Z,4.20
2018-06-23T17:04:55.782Z,3.33
2018-06-23T17:07:24.501Z,3.63
2018-06-23T17:09:52.984Z,3.30
2018-06-23T17:12:21.441Z,3.20
2018-06-23T17:14:50.078Z,4.83
2018-06-23T17:17:18.764Z,3.90
2018-06-23T17:19:47.369Z,3.87
2018-06-23T17:22:15.869Z,4.40
2018-06-23T17:24:44.357Z,3.77
2018-06-23T17:27:12.967Z,4.30
2018-06-23T17:29:41.413Z,3.70
2018-06-23T17:32:09.970Z,3.97
2018-06-23T17:34:38.633Z,3.70
2018-06-23T17:37:07.306Z,3.93
2018-06-23T17:39:35.868Z,3.60
2018-06-23T17:42:05.062Z,3.57
2018-06-23T17:44:33.556Z,3.83
2018-06-23T17:47:01.794Z,4.00
2018-06-23T17:49:30.299Z,3.53
2018-06-23T17:51:58.801Z,4.37
2018-06-23T17:54:27.353Z,3.80
2018-06-23T17:56:55.928Z,3.97
2018-06-23T17:59:24.430Z,3.80
2018-06-23T18:01:53.104Z,4.50
2018-06-23T18:04:21.801Z,4.27
2018-06-23T18:06:50.749Z,4.70
2018-06-23T18:09:19.279Z,4.60
2018-06-23T18:11:47.758Z,4.43
2018-06-23T18:14:16.319Z,4.60
2018-06-23T18:16:44.908Z,3.40
2018-06-23T18:19:13.352Z,4.37
2018-06-23T18:21:41.933Z,3.80
2018-06-23T18:24:10.385Z,3.70
2018-06-23T18:26:38.835Z,4.43
2018-06-23T18:29:07.469Z,4.63
2018-06-23T18:31:36.236Z,3.83
2018-06-23T18:34:05.028Z,3.90
2018-06-23T18:36:33.519Z,4.63
2018-06-23T18:39:01.991Z,4.03
2018-06-23T18:41:30.502Z,4.60
2018-06-23T18:43:59.010Z,4.27
2018-06-23T18:46:27.551Z,4.27
2018-06-23T18:48:56.054Z,4.10
2018-06-23T18:51:24.571Z,4.40
2018-06-23T18:53:53.130Z,3.77
2018-06-23T18:56:21.630Z,4.40
2018-06-23T18:58:50.157Z,3.80
2018-06-23T19:01:19.407Z,4.07
2018-06-23T19:03:48.046Z,3.17
2018-06-23T19:06:16.585Z,4.67
2018-06-23T19:08:45.119Z,3.83
2018-06-23T19:11:13.603Z,4.67
2018-06-23T19:13:42.197Z,5.27
2018-06-23T19:16:10.725Z,4.27
2018-06-23T19:18:39.220Z,5.10
2018-06-23T19:21:08.026Z,4.03
2018-06-23T19:23:36.460Z,4.50
2018-06-23T19:26:05.070Z,4.77
2018-06-23T19:28:33.641Z,4.57
2018-06-23T19:31:02.162Z,5.07
2018-06-23T19:33:30.667Z,4.97
2018-06-23T19:35:59.136Z,3.77
2018-06-23T19:38:27.582Z,4.03
2018-06-23T19:40:56.062Z,4.70
2018-06-23T19:43:25.082Z,5.17
2018-06-23T19:45:53.585Z,4.53
2018-06-23T19:48:22.178Z,4.47
2018-06-23T19:50:51.269Z,6.70
2018-06-23T19:53:19.743Z,5.40
2018-06-23T19:55:48.187Z,5.53
2018-06-23T19:58:16.711Z,4.83
2018-06-23T20:00:45.281Z,4.73
2018-06-23T20:03:13.724Z,4.77
2018-06-23T20:05:42.212Z,4.70
2018-06-23T20:08:10.720Z,4.73
2018-06-23T20:10:39.177Z,5.80
2018-06-23T20:13:07.735Z,4.23
2018-06-23T20:15:36.503Z,4.67
2018-06-23T20:18:05.002Z,5.13
2018-06-23T20:20:33.505Z,4.50
2018-06-23T20:23:02.017Z,4.67
2018-06-23T20:25:30.566Z,4.83
2018-06-23T20:27:59.052Z,4.90
2018-06-23T20:30:27.742Z,4.90
2018-06-23T20:32:56.229Z,4.57
2018-06-23T20:35:24.828Z,4.63
2018-06-23T20:37:53.296Z,4.40
2018-06-23T20:40:21.764Z,5.40
2018-06-23T20:42:50.300Z,4.47
2018-06-23T20:45:18.774Z,4.03
2018-06-23T20:47:46.956Z,4.83
2018-06-23T20:50:15.429Z,4.40
2018-06-23T20:52:43.947Z,3.93
2018-06-23T20:55:12.417Z,4.60
2018-06-23T20:57:40.943Z,4.57
2018-06-23T21:00:09.570Z,4.50
2018-06-23T21:02:38.106Z,4.80
2018-06-23T21:05:08.045Z,4.30
2018-06-23T21:07:36.588Z,4.43
2018-06-23T21:10:05.821Z,4.40
2018-06-23T21:12:34.448Z,3.97
2018-06-23T21:15:02.985Z,4.37
2018-06-23T21:17:31.466Z,4.97
2018-06-23T21:19:59.926Z,4.60
2018-06-23T21:22:28.465Z,4.50
2018-06-23T21:24:56.959Z,4.87
2018-06-23T21:27:25.452Z,5.20
2018-06-23T21:29:53.957Z,4.80
2018-06-23T21:32:22.452Z,5.53
2018-06-23T21:34:50.934Z,5.37
2018-06-23T21:37:19.401Z,5.70
2018-06-23T21:39:47.878Z,5.90
2018-06-23T21:42:16.517Z,4.83
2018-06-23T21:44:44.755Z,4.37
2018-06-23T21:47:13.287Z,5.10
2018-06-23T21:49:42.155Z,4.37
2018-06-23T21:52:10.665Z,5.20
2018-06-23T21:54:39.113Z,5.00
2018-06-23T21:57:07.600Z,5.10
2018-06-23T21:59:36.215Z,5.20
2018-06-23T22:02:05.011Z,5.27
2018-06-23T22:04:33.501Z,5.07
2018-06-23T22:07:01.981Z,4.93
2018-06-23T22:09:30.461Z,5.17
2018-06-23T22:11:59.044Z,5.07
2018-06-23T22:14:27.505Z,5.57
2018-06-23T22:16:56.609Z,5.30
2018-06-23T22:19:25.121Z,5.67
2018-06-23T22:21:53.621Z,5.57
2018-06-23T22:24:22.093Z,5.60
2018-06-23T22:26:50.621Z,5.97
2018-06-23T22:29:19.153Z,5.90
2018-06-23T22:31:47.682Z,5.53
2018-06-23T22:34:16.781Z,5.80
2018-06-23T22:36:45.298Z,5.70
2018-06-23T22:39:13.861Z,5.87
2018-06-23T22:41:42.351Z,5.60
2018-06-23T22:44:10.840Z,5.67
2018-06-23T22:46:39.356Z,5.00
2018-06-23T22:49:07.861Z,6.10
2018-06-23T22:51:36.426Z,4.97
2018-06-23T22:54:05.163Z,6.00
2018-06-23T22:56:33.722Z,5.13
2018-06-23T22:59:02.186Z,6.00
2018-06-23T23:01:30.807Z,5.77
2018-06-23T23:03:59.500Z,6.30
2018-06-23T23:06:28.093Z,6.10
2018-06-23T23:08:56.606Z,5.27
2018-06-23T23:11:25.121Z,5.30
2018-06-23T23:13:54.325Z,5.67
2018-06-23T23:16:22.925Z,5.27
2018-06-23T23:18:51.526Z,5.77
2018-06-23T23:21:19.998Z,5.87
2018-06-23T23:23:48.463Z,6.07
2018-06-23T23:26:17.026Z,6.30
2018-06-23T23:28:45.560Z,6.30
2018-06-23T23:31:14.554Z,5.87
2018-06-23T23:33:43.333Z,5.67
2018-06-23T23:36:11.793Z,6.03
2018-06-23T23:38:40.295Z,5.97
2018-06-23T23:41:08.464Z,6.67
2018-06-23T23:43:37.008Z,6.73
2018-06-23T23:46:05.606Z,5.57
2018-06-23T23:48:34.182Z,5.57
2018-06-23T23:51:03.220Z,5.60
2018-06-23T23:53:31.689Z,6.10
2018-06-23T23:56:00.169Z,5.73
2018-06-23T23:58:28.685Z,5.50
